createdAt,value
2019-03-01T00:01:55.339Z,100.00
2019-03-01T00:04:48.358Z,99.90
2019-03-01T00:07:54.194Z,99.67
2019-03-01T00:10:49.141Z,99.24
2019-03-01T00:13:54.581Z,99.33
2019-03-01T00:17:04.911Z,99.30
2019-03-01T00:20:07.691Z,99.00
2019-03-01T00:23:10.242Z,98.78
2019-03-01T00:26:10.579Z,98.82
2019-03-01T00:29:02.130Z,98.78
2019-03-01T00:32:05.877Z,98.78
2019-03-01T00:35:24.078Z,98.40
2019-03-01T00:38:49.437Z,98.41
2019-03-01T00:41:54.678Z,98.63
2019-03-01T00:44:31.451Z,98.56
2019-03-01T00:47:00.613Z,98.35
2019-03-01T00:49:31.604Z,98.48
2019-03-01T00:52:00.711Z,98.30
2019-03-01T00:54:29.793Z,98.19
2019-03-01T00:56:58.885Z,97.76
2019-03-01T00:59:27.967Z,97.54
2019-03-01T01:01:57.064Z,97.24
2019-03-01T01:04:26.142Z,97.39
2019-03-01T01:06:55.238Z,97.45
2019-03-01T01:09:24.312Z,97.38
2019-03-01T01:11:53.508Z,97.68
2019-03-01T01:14:22.597Z,97.62
2019-03-01T01:16:51.719Z,97.71
2019-03-01T01:19:20.785Z,97.51
2019-03-01T01:21:49.931Z,97.78
2019-03-01T01:24:19.007Z,98.00
2019-03-01T01:26:48.100Z,98.33
2019-03-01T01:29:17.169Z,98.15
2019-03-01T01:31:46.282Z,98.21
2019-03-01T01:34:15.357Z,97.89
2019-03-01T01:36:44.442Z,97.42
2019-03-01T01:39:13.542Z,97.00
2019-03-01T01:41:42.608Z,96.98
2019-03-01T01:44:11.705Z,97.16
2019-03-01T01:46:40.782Z,96.86
2019-03-01T01:49:09.869Z,96.66
2019-03-01T01:51:38.941Z,96.55
2019-03-01T01:54:08.040Z,96.23
2019-03-01T01:56:37.114Z,96.60
2019-03-01T01:59:06.206Z,96.36
2019-03-01T02:01:35.284Z,95.93
2019-03-01T02:04:04.490Z,95.89
2019-03-01T02:06:33.567Z,95.97
2019-03-01T02:09:02.679Z,95.76
2019-03-01T02:11:31.765Z,95.69
2019-03-01T02:14:00.863Z,95.64
2019-03-01T02:16:29.961Z,95.50
2019-03-01T02:18:59.170Z,95.86
2019-03-01T02:21:28.249Z,96.07
2019-03-01T02:23:57.354Z,96.64
2019-03-01T02:26:26.433Z,96.61
2019-03-01T02:28:55.529Z,96.74
2019-03-01T02:31:24.608Z,96.89
2019-03-01T02:33:53.702Z,96.73
2019-03-01T02:36:22.779Z,96.78
2019-03-01T02:38:51.873Z,96.51
2019-03-01T02:41:20.961Z,96.60
2019-03-01T02:43:50.087Z,96.70
2019-03-01T02:46:19.149Z,96.66
2019-03-01T02:48:48.241Z,96.99
2019-03-01T02:51:17.316Z,96.94
2019-03-01T02:53:46.441Z,96.72
2019-03-01T02:56:15.505Z,97.01
2019-03-01T02:58:44.573Z,96.96
2019-03-01T03:01:13.671Z,97.03
2019-03-01T03:03:42.765Z,97.41
2019-03-01T03:06:39.944Z,97.54
2019-03-01T03:09:09.888Z,97.18
2019-03-01T03:11:38.988Z,97.67
2019-03-01T03:14:08.062Z,97.67
2019-03-01T03:16:37.244Z,97.84
2019-03-01T03:19:06.332Z,98.25
2019-03-01T03:21:35.423Z,98.50
2019-03-01T03:24:04.491Z,98.50
2019-03-01T03:26:33.591Z,98.91
2019-03-01T03:29:02.666Z,98.95
2019-03-01T03:31:31.759Z,99.15
2019-03-01T03:34:00.840Z,99.30
2019-03-01T03:36:29.934Z,98.98
2019-03-01T03:38:59.013Z,99.39
2019-03-01T03:41:28.110Z,99.49
2019-03-01T03:43:57.184Z,98.95
2019-03-01T03:46:26.284Z,98.98
2019-03-01T03:48:55.359Z,98.60
2019-03-01T03:51:24.449Z,98.78
2019-03-01T03:53:53.520Z,99.18
2019-03-01T03:56:22.610Z,99.12
2019-03-01T03:58:51.683Z,99.20
2019-03-01T04:01:20.795Z,99.39
2019-03-01T04:03:49.874Z,99.89
2019-03-01T04:06:18.977Z,100.00
2019-03-01T04:08:48.056Z,100.00
2019-03-01T04:11:17.153Z,100.00
2019-03-01T04:13:46.229Z,100.00
2019-03-01T04:16:15.346Z,100.00
2019-03-01T04:18:44.443Z,100.00
2019-03-01T04:21:13.543Z,100.00
2019-03-01T04:23:42.622Z,100.00
2019-03-01T04:26:11.830Z,100.00
2019-03-01T04:28:40.896Z,100.00
2019-03-01T04:31:10.055Z,100.00
2019-03-01T04:33:39.150Z,100.00
2019-03-01T04:36:08.235Z,100.00
2019-03-01T04:38:37.344Z,100.00
2019-03-01T04:41:06.503Z,100.00
2019-03-01T04:43:35.611Z,100.00
2019-03-01T04:46:04.690Z,100.00
2019-03-01T04:48:33.801Z,100.00
2019-03-01T04:51:02.863Z,100.00
2019-03-01T04:53:31.973Z,100.00
2019-03-01T04:56:01.050Z,100.00
2019-03-01T04:58:30.232Z,100.00
2019-03-01T05:00:59.499Z,100.00
2019-03-01T05:03:28.607Z,100.00
2019-03-01T05:05:57.695Z,100.00
2019-03-01T05:08:26.800Z,100.00
2019-03-01T05:10:55.882Z,100.00
2019-03-01T05:13:24.982Z,100.00
2019-03-01T05:15:54.076Z,100.00
2019-03-01T05:18:23.211Z,100.00
2019-03-01T05:20:52.299Z,100.00
2019-03-01T05:23:21.399Z,100.00
2019-03-01T05:25:50.492Z,100.00
2019-03-01T05:28:19.599Z,100.00
2019-03-01T05:30:48.679Z,100.00
2019-03-01T05:33:17.812Z,100.00
2019-03-01T05:35:46.885Z,100.00
2019-03-01T05:38:21.839Z,100.00
2019-03-01T05:40:46.994Z,100.00
2019-03-01T05:43:16.087Z,100.00
2019-03-01T05:45:45.209Z,100.00
2019-03-01T05:48:14.298Z,100.00
2019-03-01T05:50:43.412Z,100.00
2019-03-01T05:53:12.517Z,100.00
2019-03-01T05:55:41.620Z,100.00
2019-03-01T05:58:32.472Z,100.00
2019-03-01T06:01:14.508Z,100.00
2019-03-01T06:03:51.399Z,100.00
2019-03-01T06:06:24.380Z,100.00
2019-03-01T06:09:20.519Z,100.00
2019-03-01T06:12:09.200Z,100.00
2019-03-01T06:14:59.195Z,100.00
2019-03-01T06:17:59.981Z,100.00
2019-03-01T06:21:00.945Z,100.00
2019-03-01T06:24:08.677Z,100.00
2019-03-01T06:27:13.466Z,100.00
2019-03-01T06:29:53.478Z,100.00
2019-03-01T06:33:24.662Z,100.00
2019-03-01T06:36:00.854Z,100.00
2019-03-01T06:39:30.612Z,100.00
2019-03-01T06:42:28.861Z,100.00
2019-03-01T06:45:20.877Z,100.00
2019-03-01T06:47:50.717Z,100.00
2019-03-01T06:50:37.514Z,100.00
2019-03-01T06:53:06.621Z,100.00
2019-03-01T06:55:43.727Z,100.00
2019-03-01T06:58:33.442Z,100.00
2019-03-01T07:01:21.503Z,100.00
2019-03-01T07:04:09.576Z,100.00
2019-03-01T07:06:38.666Z,100.00
2019-03-01T07:09:07.850Z,100.00
2019-03-01T07:11:36.944Z,100.00
2019-03-01T07:14:06.043Z,100.00
2019-03-01T07:16:35.124Z,100.00
2019-03-01T07:19:04.255Z,100.00
2019-03-01T07:21:33.326Z,100.00
2019-03-01T07:24:02.463Z,100.00
2019-03-01T07:26:31.516Z,100.00
2019-03-01T07:29:00.611Z,100.00
2019-03-01T07:31:29.697Z,100.00
2019-03-01T07:33:58.799Z,100.00
2019-03-01T07:36:27.877Z,100.00
2019-03-01T07:38:56.995Z,100.00
2019-03-01T07:41:26.085Z,100.00
2019-03-01T07:43:55.181Z,100.00
2019-03-01T07:46:24.271Z,100.00
2019-03-01T07:48:53.374Z,100.00
2019-03-01T07:51:22.454Z,100.00
2019-03-01T07:53:51.558Z,100.00
2019-03-01T07:56:20.638Z,100.00
2019-03-01T07:58:49.740Z,100.00
2019-03-01T08:01:18.818Z,100.00
2019-03-01T08:03:52.296Z,100.00
2019-03-01T08:06:18.753Z,100.00
2019-03-01T08:08:47.855Z,100.00
2019-03-01T08:11:16.936Z,100.00
2019-03-01T08:13:46.040Z,100.00
2019-03-01T08:16:16.677Z,100.00
2019-03-01T08:18:45.995Z,100.00
2019-03-01T08:21:15.115Z,100.00
2019-03-01T08:23:44.163Z,100.00
2019-03-01T08:26:13.270Z,100.00
2019-03-01T08:28:42.349Z,100.00
2019-03-01T08:31:11.447Z,100.00
2019-03-01T08:33:43.381Z,100.00
2019-03-01T08:36:11.353Z,100.00
2019-03-01T08:38:40.435Z,100.00
2019-03-01T08:41:09.540Z,100.00
2019-03-01T08:43:38.626Z,100.00
2019-03-01T08:46:09.609Z,100.00
2019-03-01T08:48:38.524Z,100.00
2019-03-01T08:51:07.631Z,100.00
2019-03-01T08:53:36.706Z,100.00
2019-03-01T08:56:05.809Z,100.00
2019-03-01T08:58:37.574Z,100.00
2019-03-01T09:01:09.420Z,99.95
2019-03-01T09:03:48.279Z,98.86
2019-03-01T09:06:18.743Z,99.79
2019-03-01T09:08:47.822Z,100.00
2019-03-01T09:11:16.912Z,99.35
2019-03-01T09:13:45.986Z,100.00
2019-03-01T09:16:15.094Z,100.00
2019-03-01T09:18:46.679Z,100.00
2019-03-01T09:21:15.048Z,100.00
2019-03-01T09:23:44.115Z,100.00
2019-03-01T09:26:13.225Z,100.00
2019-03-01T09:28:42.305Z,100.00
2019-03-01T09:31:11.392Z,100.00
2019-03-01T09:33:40.507Z,100.00
2019-03-01T09:36:31.666Z,100.00
2019-03-01T09:39:00.742Z,100.00
2019-03-01T09:41:29.825Z,100.00
2019-03-01T09:43:59.724Z,100.00
2019-03-01T09:46:29.724Z,100.00
2019-03-01T09:48:58.817Z,98.47
2019-03-01T09:51:27.888Z,98.56
2019-03-01T09:53:56.982Z,98.74
2019-03-01T09:56:26.062Z,98.77
2019-03-01T09:58:55.162Z,98.53
2019-03-01T10:01:24.247Z,98.41
2019-03-01T10:03:53.398Z,99.07
2019-03-01T10:06:22.469Z,96.87
2019-03-01T10:08:51.560Z,96.70
2019-03-01T10:11:20.638Z,97.25
2019-03-01T10:13:49.755Z,96.63
2019-03-01T10:16:18.838Z,97.86
2019-03-01T10:18:47.962Z,98.04
2019-03-01T10:21:17.037Z,98.04
2019-03-01T10:23:46.162Z,98.35
2019-03-01T10:26:15.242Z,99.08
2019-03-01T10:28:44.343Z,99.27
2019-03-01T10:31:13.423Z,99.70
2019-03-01T10:33:42.519Z,98.37
2019-03-01T10:36:11.804Z,97.84
2019-03-01T10:38:40.897Z,97.38
2019-03-01T10:41:09.983Z,97.24
2019-03-01T10:43:39.075Z,97.92
2019-03-01T10:46:08.148Z,97.94
2019-03-01T10:48:37.246Z,97.46
2019-03-01T10:51:06.331Z,95.49
2019-03-01T10:53:35.434Z,94.03
2019-03-01T10:56:04.518Z,91.95
2019-03-01T10:58:33.624Z,90.42
2019-03-01T11:01:02.713Z,82.39
2019-03-01T11:03:31.798Z,80.68
2019-03-01T11:06:00.908Z,70.41
2019-03-01T11:08:29.995Z,59.07
2019-03-01T11:10:59.108Z,51.93
2019-03-01T11:13:28.212Z,62.31
2019-03-01T11:15:57.330Z,68.53
2019-03-01T11:18:26.460Z,70.22
2019-03-01T11:20:55.602Z,70.23
2019-03-01T11:23:24.691Z,74.91
2019-03-01T11:25:53.807Z,78.11
2019-03-01T11:28:22.888Z,78.43
2019-03-01T11:30:52.001Z,78.92
2019-03-01T11:33:21.097Z,78.16
2019-03-01T11:35:50.204Z,75.64
2019-03-01T11:38:19.288Z,73.24
2019-03-01T11:40:48.399Z,73.27
2019-03-01T11:43:17.488Z,66.00
2019-03-01T11:45:46.601Z,71.03
2019-03-01T11:48:15.694Z,77.89
2019-03-01T11:50:45.014Z,80.19
2019-03-01T11:53:14.099Z,84.27
2019-03-01T11:55:43.204Z,85.91
2019-03-01T11:58:12.284Z,88.67
2019-03-01T12:00:41.394Z,90.53
2019-03-01T12:03:10.477Z,92.29
2019-03-01T12:05:39.564Z,93.45
2019-03-01T12:08:08.664Z,94.49
2019-03-01T12:10:37.777Z,94.51
2019-03-01T12:13:06.865Z,95.21
2019-03-01T12:15:35.948Z,95.64
2019-03-01T12:18:05.056Z,95.86
2019-03-01T12:20:34.175Z,94.72
2019-03-01T12:23:03.275Z,95.48
2019-03-01T12:25:32.363Z,94.87
2019-03-01T12:28:01.462Z,95.50
2019-03-01T12:30:30.553Z,96.13
2019-03-01T12:32:59.652Z,97.12
2019-03-01T12:35:28.741Z,96.75
2019-03-01T12:37:57.848Z,96.94
2019-03-01T12:40:27.161Z,96.94
2019-03-01T12:42:56.268Z,96.49
2019-03-01T12:45:25.356Z,97.54
2019-03-01T12:47:54.469Z,97.17
2019-03-01T12:50:23.555Z,97.31
2019-03-01T12:52:52.660Z,97.02
2019-03-01T12:55:22.339Z,96.36
2019-03-01T12:57:51.447Z,96.43
2019-03-01T13:00:26.002Z,96.36
2019-03-01T13:02:55.100Z,95.54
2019-03-01T13:05:25.576Z,95.66
2019-03-01T13:07:55.036Z,95.22
2019-03-01T13:10:25.900Z,96.04
2019-03-01T13:12:55.106Z,95.32
2019-03-01T13:15:24.249Z,95.71
2019-03-01T13:17:53.341Z,95.39
2019-03-01T13:20:22.483Z,96.02
2019-03-01T13:22:51.571Z,96.05
2019-03-01T13:25:20.680Z,96.75
2019-03-01T13:27:52.669Z,95.32
2019-03-01T13:30:21.491Z,94.40
2019-03-01T13:32:50.575Z,93.62
2019-03-01T13:35:22.234Z,92.95
2019-03-01T13:37:52.015Z,92.10
2019-03-01T13:40:24.527Z,91.12
2019-03-01T13:42:52.253Z,91.12
2019-03-01T13:45:21.384Z,91.13
2019-03-01T13:47:50.470Z,90.55
2019-03-01T13:50:19.756Z,89.79
2019-03-01T13:52:50.121Z,89.89
2019-03-01T13:55:22.160Z,89.06
2019-03-01T13:57:51.364Z,89.75
2019-03-01T14:00:20.653Z,91.67
2019-03-01T14:02:49.950Z,91.79
2019-03-01T14:05:19.562Z,91.26
2019-03-01T14:07:48.781Z,91.20
2019-03-01T14:10:19.249Z,91.62
2019-03-01T14:12:48.350Z,92.04
2019-03-01T14:15:17.715Z,91.60
2019-03-01T14:17:46.814Z,91.95
2019-03-01T14:20:20.570Z,92.38
2019-03-01T14:22:49.253Z,92.55
2019-03-01T14:25:18.462Z,91.61
2019-03-01T14:27:47.812Z,92.95
2019-03-01T14:30:18.515Z,91.78
2019-03-01T14:32:47.592Z,92.63
2019-03-01T14:35:16.714Z,93.47
2019-03-01T14:37:45.810Z,92.79
2019-03-01T14:40:15.553Z,93.50
2019-03-01T14:42:47.432Z,93.69
2019-03-01T14:45:17.983Z,93.64
2019-03-01T14:47:48.159Z,93.12
2019-03-01T14:50:18.468Z,93.57
2019-03-01T14:52:47.559Z,93.40
2019-03-01T14:55:19.827Z,94.15
2019-03-01T14:57:56.319Z,94.10
2019-03-01T15:00:32.049Z,93.71
2019-03-01T15:03:15.931Z,94.00
2019-03-01T15:05:41.963Z,93.48
2019-03-01T15:08:11.912Z,93.23
2019-03-01T15:10:41.019Z,93.58
2019-03-01T15:13:10.113Z,93.43
2019-03-01T15:15:39.234Z,93.63
2019-03-01T15:18:08.336Z,94.21
2019-03-01T15:20:37.470Z,94.01
2019-03-01T15:23:06.551Z,94.18
2019-03-01T15:25:35.654Z,93.06
2019-03-01T15:28:04.741Z,93.81
2019-03-01T15:30:36.239Z,94.46
2019-03-01T15:33:08.403Z,94.36
2019-03-01T15:35:39.435Z,94.45
2019-03-01T15:38:08.394Z,94.91
2019-03-01T15:40:37.501Z,94.85
2019-03-01T15:43:06.600Z,94.40
2019-03-01T15:45:36.712Z,95.08
2019-03-01T15:48:06.911Z,95.04
2019-03-01T15:50:36.099Z,94.91
2019-03-01T15:53:05.214Z,94.77
2019-03-01T15:55:34.293Z,95.76
2019-03-01T15:58:03.410Z,95.60
2019-03-01T16:00:32.503Z,95.64
2019-03-01T16:03:01.637Z,95.76
2019-03-01T16:05:30.722Z,95.80
2019-03-01T16:07:59.833Z,95.96
2019-03-01T16:10:28.922Z,95.82
2019-03-01T16:12:58.048Z,95.86
2019-03-01T16:15:27.144Z,95.95
2019-03-01T16:17:57.648Z,96.87
2019-03-01T16:20:28.443Z,97.36
2019-03-01T16:22:58.036Z,97.78
2019-03-01T16:25:27.123Z,98.46
2019-03-01T16:27:56.227Z,98.53
2019-03-01T16:30:25.619Z,98.78
2019-03-01T16:32:54.732Z,99.41
2019-03-01T16:35:23.812Z,99.60
2019-03-01T16:37:53.209Z,99.67
2019-03-01T16:40:22.310Z,100.00
2019-03-01T16:42:54.140Z,100.00
2019-03-01T16:45:22.253Z,100.00
2019-03-01T16:47:51.359Z,99.98
2019-03-01T16:50:20.581Z,99.99
2019-03-01T16:52:49.696Z,99.81
2019-03-01T16:55:18.801Z,99.59
2019-03-01T16:57:48.620Z,99.99
2019-03-01T17:00:19.405Z,99.86
2019-03-01T17:02:48.516Z,100.00
2019-03-01T17:05:17.596Z,100.00
2019-03-01T17:07:46.709Z,99.67
2019-03-01T17:10:17.203Z,99.26
2019-03-01T17:12:48.784Z,98.93
2019-03-01T17:15:18.683Z,98.99
2019-03-01T17:17:49.009Z,99.48
2019-03-01T17:20:18.424Z,99.43
2019-03-01T17:22:47.534Z,99.21
2019-03-01T17:25:16.823Z,99.29
2019-03-01T17:27:45.951Z,98.98
2019-03-01T17:30:17.855Z,99.21
2019-03-01T17:32:47.014Z,99.98
2019-03-01T17:35:16.173Z,100.00
2019-03-01T17:37:45.328Z,100.00
2019-03-01T17:40:15.784Z,100.00
2019-03-01T17:42:44.938Z,100.00
2019-03-01T17:45:17.332Z,100.00
2019-03-01T17:47:47.982Z,100.00
2019-03-01T17:50:17.093Z,100.00
2019-03-01T17:52:46.177Z,100.00
2019-03-01T17:55:15.304Z,100.00
2019-03-01T17:57:44.389Z,100.00
2019-03-01T18:00:16.719Z,100.00
2019-03-01T18:02:48.638Z,100.00
2019-03-01T18:05:16.631Z,100.00
2019-03-01T18:07:45.716Z,100.00
2019-03-01T18:10:15.268Z,100.00
2019-03-01T18:12:44.380Z,100.00
2019-03-01T18:15:13.914Z,100.00
2019-03-01T18:17:42.991Z,99.53
2019-03-01T18:20:12.170Z,99.73
2019-03-01T18:22:41.263Z,99.69
2019-03-01T18:25:10.941Z,99.96
2019-03-01T18:27:40.050Z,99.85
2019-03-01T18:30:16.122Z,100.00
2019-03-01T18:32:45.143Z,99.77
2019-03-01T18:35:14.780Z,99.87
2019-03-01T18:37:45.245Z,99.42
2019-03-01T18:40:16.783Z,98.88
2019-03-01T18:42:45.401Z,99.13
2019-03-01T18:45:15.835Z,99.90
2019-03-01T18:47:44.915Z,99.53
2019-03-01T18:50:19.912Z,98.89
2019-03-01T18:52:49.667Z,99.23
2019-03-01T18:55:20.020Z,99.32
2019-03-01T18:57:49.115Z,99.28
2019-03-01T19:00:26.480Z,99.17
2019-03-01T19:02:57.538Z,98.61
2019-03-01T19:05:26.640Z,98.41
2019-03-01T19:07:55.750Z,98.18
2019-03-01T19:10:27.519Z,97.11
2019-03-01T19:12:55.695Z,97.42
2019-03-01T19:15:24.787Z,97.66
2019-03-01T19:17:53.891Z,97.66
2019-03-01T19:20:24.356Z,97.93
2019-03-01T19:22:53.459Z,97.96
2019-03-01T19:25:25.300Z,97.74
2019-03-01T19:27:53.468Z,97.65
2019-03-01T19:30:22.732Z,97.39
2019-03-01T19:32:51.846Z,97.17
2019-03-01T19:35:20.939Z,97.51
2019-03-01T19:37:50.786Z,97.42
2019-03-01T19:40:20.833Z,96.85
2019-03-01T19:42:49.949Z,96.63
2019-03-01T19:45:19.147Z,96.52
2019-03-01T19:47:48.353Z,96.31
2019-03-01T19:50:21.691Z,96.80
2019-03-01T19:52:50.504Z,96.51
2019-03-01T19:55:19.844Z,96.72
2019-03-01T19:57:48.950Z,97.31
2019-03-01T20:00:20.875Z,97.37
2019-03-01T20:02:49.990Z,97.38
2019-03-01T20:05:21.099Z,97.08
2019-03-01T20:07:51.805Z,97.21
2019-03-01T20:10:22.143Z,97.43
2019-03-01T20:12:51.453Z,97.47
2019-03-01T20:15:21.762Z,97.31
2019-03-01T20:17:50.872Z,97.68
2019-03-01T20:20:20.646Z,97.44
2019-03-01T20:22:50.498Z,97.00
2019-03-01T20:25:20.572Z,95.75
2019-03-01T20:27:49.778Z,96.61
2019-03-01T20:30:28.651Z,96.65
2019-03-01T20:32:54.174Z,96.52
2019-03-01T20:35:23.300Z,96.40
2019-03-01T20:37:52.388Z,96.17
2019-03-01T20:40:26.056Z,96.81
2019-03-01T20:42:55.902Z,96.97
2019-03-01T20:45:29.748Z,96.66
2019-03-01T20:47:57.052Z,96.92
2019-03-01T20:50:27.667Z,96.81
2019-03-01T20:52:56.758Z,96.64
2019-03-01T20:55:25.869Z,96.32
2019-03-01T20:57:54.956Z,96.29
2019-03-01T21:00:26.272Z,96.51
2019-03-01T21:02:54.986Z,96.60
2019-03-01T21:05:24.887Z,96.53
2019-03-01T21:07:54.961Z,96.49
2019-03-01T21:10:24.036Z,95.86
2019-03-01T21:12:53.126Z,95.85
2019-03-01T21:15:22.473Z,95.33
2019-03-01T21:17:52.976Z,94.99
2019-03-01T21:20:22.431Z,93.95
2019-03-01T21:22:51.558Z,93.91
2019-03-01T21:25:20.681Z,93.94
2019-03-01T21:27:49.764Z,94.19
2019-03-01T21:30:24.796Z,94.34
2019-03-01T21:32:53.977Z,94.51
2019-03-01T21:35:23.085Z,94.49
2019-03-01T21:37:52.623Z,94.63
2019-03-01T21:40:21.753Z,94.94
2019-03-01T21:42:52.742Z,94.74
2019-03-01T21:45:22.461Z,94.87
2019-03-01T21:47:51.648Z,95.21
2019-03-01T21:50:20.774Z,94.83
2019-03-01T21:52:49.858Z,94.28
2019-03-01T21:55:19.001Z,94.52
2019-03-01T21:57:48.084Z,95.15
2019-03-01T22:00:19.197Z,95.23
2019-03-01T22:02:48.836Z,95.41
2019-03-01T22:05:19.227Z,94.93
2019-03-01T22:07:48.387Z,94.61
2019-03-01T22:10:19.583Z,95.02
2019-03-01T22:12:48.669Z,94.43
2019-03-01T22:15:21.646Z,93.87
2019-03-01T22:17:50.868Z,93.35
2019-03-01T22:20:21.504Z,92.93
2019-03-01T22:22:50.602Z,92.84
2019-03-01T22:25:19.699Z,92.82
2019-03-01T22:27:48.810Z,92.59
2019-03-01T22:30:29.080Z,92.27
2019-03-01T22:32:58.172Z,92.45
2019-03-01T22:35:27.258Z,92.93
2019-03-01T22:37:56.378Z,92.68
2019-03-01T22:40:28.000Z,92.28
2019-03-01T22:42:57.867Z,92.37
2019-03-01T22:45:26.953Z,92.49
2019-03-01T22:47:56.062Z,92.22
2019-03-01T22:50:25.154Z,92.10
2019-03-01T22:52:54.265Z,91.97
2019-03-01T22:55:23.348Z,91.98
2019-03-01T22:57:52.527Z,92.14
2019-03-01T23:01:05.782Z,92.53
2019-03-01T23:03:34.960Z,92.33
2019-03-01T23:06:04.087Z,92.56
2019-03-01T23:08:35.476Z,91.91
2019-03-01T23:11:04.116Z,92.03
2019-03-01T23:13:33.223Z,91.78
2019-03-01T23:16:02.303Z,91.87
2019-03-01T23:18:31.423Z,92.01
2019-03-01T23:21:01.058Z,91.66
2019-03-01T23:23:31.014Z,91.58
2019-03-01T23:26:00.103Z,92.34
2019-03-01T23:28:29.197Z,91.51
2019-03-01T23:31:00.551Z,92.24
2019-03-01T23:33:31.557Z,91.26
2019-03-01T23:35:59.926Z,91.06
2019-03-01T23:38:29.035Z,91.75
2019-03-01T23:40:58.113Z,91.78
2019-03-01T23:43:27.573Z,91.46
2019-03-01T23:45:58.027Z,90.37
2019-03-01T23:48:27.137Z,90.60
2019-03-01T23:50:56.221Z,91.11
2019-03-01T23:53:27.363Z,91.01
2019-03-01T23:55:56.141Z,91.41
2019-03-01T23:58:25.251Z,91.42
